createdAt,value
2023-03-24T00:01:19.190Z,10.66
2023-03-24T00:03:48.578Z,10.65
2023-03-24T00:06:15.218Z,10.59
2023-03-24T00:08:43.883Z,10.64
2023-03-24T00:11:11.924Z,10.56
2023-03-24T00:13:39.747Z,10.46
2023-03-24T00:16:12.613Z,10.52
2023-03-24T00:18:39.705Z,10.49
2023-03-24T00:21:08.755Z,10.41
2023-03-24T00:23:35.309Z,10.39
2023-03-24T00:26:07.212Z,10.40
2023-03-24T00:28:36.893Z,10.33
2023-03-24T00:31:05.881Z,10.28
2023-03-24T00:33:34.972Z,10.21
2023-03-24T00:36:07.219Z,10.04
2023-03-24T00:38:34.674Z,10.01
2023-03-24T00:41:01.990Z,10.05
2023-03-24T00:43:29.102Z,10.00
2023-03-24T00:46:01.851Z,10.06
2023-03-24T00:48:29.474Z,10.11
2023-03-24T00:50:56.919Z,10.13
2023-03-24T00:53:25.817Z,10.11
2023-03-24T00:55:52.255Z,10.05
2023-03-24T00:58:19.793Z,9.92
2023-03-24T01:00:48.591Z,10.02
2023-03-24T01:03:15.884Z,9.98
2023-03-24T01:05:48.546Z,9.98
2023-03-24T01:08:20.280Z,10.05
2023-03-24T01:10:53.090Z,9.98
2023-03-24T01:13:30.140Z,9.88
2023-03-24T01:15:57.522Z,9.79
2023-03-24T01:18:24.202Z,9.82
2023-03-24T01:20:51.226Z,9.65
2023-03-24T01:23:25.819Z,9.64
2023-03-24T01:25:53.964Z,9.67
2023-03-24T01:28:24.777Z,9.72
2023-03-24T01:30:53.908Z,9.77
2023-03-24T01:33:21.334Z,9.73
2023-03-24T01:35:48.361Z,9.75
2023-03-24T01:38:15.705Z,9.85
2023-03-24T01:40:45.274Z,10.00
2023-03-24T01:43:26.630Z,10.09
2023-03-24T01:46:16.590Z,10.10
2023-03-24T01:48:49.489Z,10.15
2023-03-24T01:51:26.708Z,10.21
2023-03-24T01:53:58.245Z,10.26
2023-03-24T01:56:26.106Z,10.33
2023-03-24T01:58:58.462Z,10.29
2023-03-24T02:01:33.680Z,10.40
2023-03-24T02:04:34.626Z,10.53
2023-03-24T02:07:15.281Z,10.52
2023-03-24T02:09:41.898Z,10.60
2023-03-24T02:12:08.544Z,10.64
2023-03-24T02:14:35.427Z,10.66
2023-03-24T02:17:16.320Z,10.71
2023-03-24T02:20:11.397Z,10.69
2023-03-24T02:23:04.703Z,10.76
2023-03-24T02:25:51.863Z,10.78
2023-03-24T02:28:46.251Z,10.85
2023-03-24T02:31:24.681Z,10.69
2023-03-24T02:34:22.165Z,10.90
2023-03-24T02:37:12.669Z,10.98
2023-03-24T02:40:21.837Z,10.79
2023-03-24T02:43:19.199Z,11.05
2023-03-24T02:45:53.528Z,11.04
2023-03-24T02:48:42.356Z,11.15
2023-03-24T02:51:20.359Z,11.22
2023-03-24T02:54:12.900Z,11.21
2023-03-24T02:57:06.012Z,11.16
2023-03-24T03:00:09.469Z,11.20
2023-03-24T03:03:03.201Z,11.14
2023-03-24T03:05:41.869Z,11.05
2023-03-24T03:08:12.415Z,11.06
2023-03-24T03:10:43.483Z,11.07
2023-03-24T03:13:20.410Z,10.96
2023-03-24T03:15:51.206Z,10.82
2023-03-24T03:18:23.746Z,10.82
2023-03-24T03:20:55.667Z,10.77
2023-03-24T03:23:46.412Z,10.77
2023-03-24T03:26:17.962Z,10.84
2023-03-24T03:28:50.298Z,10.75
2023-03-24T03:31:29.728Z,10.76
2023-03-24T03:34:10.973Z,10.69
2023-03-24T03:36:48.215Z,10.70
2023-03-24T03:39:20.648Z,10.74
2023-03-24T03:41:47.569Z,10.61
2023-03-24T03:44:14.077Z,10.52
2023-03-24T03:46:40.950Z,10.57
2023-03-24T03:49:10.449Z,10.42
2023-03-24T03:51:36.995Z,10.49
2023-03-24T03:54:07.133Z,10.52
2023-03-24T03:56:36.148Z,10.54
2023-03-24T03:59:36.519Z,10.35
2023-03-24T04:02:35.866Z,10.27
2023-03-24T04:05:18.638Z,10.15
2023-03-24T04:08:23.692Z,10.28
2023-03-24T04:11:19.208Z,10.32
2023-03-24T04:14:16.403Z,10.28
2023-03-24T04:17:14.601Z,10.14
2023-03-24T04:20:05.627Z,10.28
2023-03-24T04:22:54.002Z,10.15
2023-03-24T04:25:45.507Z,9.98
2023-03-24T04:28:26.244Z,10.07
2023-03-24T04:31:01.607Z,10.17
2023-03-24T04:33:50.422Z,10.22
2023-03-24T04:36:31.717Z,10.21
2023-03-24T04:39:28.031Z,10.13
2023-03-24T04:41:58.778Z,10.15
2023-03-24T04:44:30.110Z,10.16
2023-03-24T04:47:24.280Z,10.14
2023-03-24T04:50:11.266Z,10.12
2023-03-24T04:52:40.587Z,10.09
2023-03-24T04:55:32.292Z,10.29
2023-03-24T04:57:59.105Z,10.29
2023-03-24T05:00:25.862Z,10.23
2023-03-24T05:02:52.434Z,10.23
2023-03-24T05:05:24.860Z,10.25
2023-03-24T05:07:51.480Z,10.04
2023-03-24T05:10:21.800Z,10.09
2023-03-24T05:12:54.016Z,10.15
2023-03-24T05:15:26.898Z,10.14
2023-03-24T05:18:00.934Z,10.09
2023-03-24T05:20:27.583Z,9.97
2023-03-24T05:23:01.481Z,10.06
2023-03-24T05:25:28.023Z,10.06
2023-03-24T05:27:54.450Z,9.97
2023-03-24T05:30:24.213Z,9.85
2023-03-24T05:32:57.415Z,9.88
2023-03-24T05:35:24.858Z,9.94
2023-03-24T05:37:52.042Z,9.85
2023-03-24T05:40:19.152Z,9.77
2023-03-24T05:42:51.589Z,9.85
2023-03-24T05:45:18.715Z,9.97
2023-03-24T05:47:46.746Z,10.01
2023-03-24T05:50:13.802Z,9.97
2023-03-24T05:52:41.466Z,9.95
2023-03-24T05:55:24.357Z,9.88
2023-03-24T05:57:59.287Z,9.95
2023-03-24T06:00:47.488Z,9.96
2023-03-24T06:03:22.920Z,10.02
2023-03-24T06:06:00.276Z,9.96
2023-03-24T06:08:28.565Z,9.81
2023-03-24T06:11:00.416Z,9.90
2023-03-24T06:13:26.975Z,9.94
2023-03-24T06:15:54.614Z,9.91
2023-03-24T06:18:34.649Z,9.97
2023-03-24T06:21:10.667Z,9.91
2023-03-24T06:23:38.258Z,9.84
2023-03-24T06:26:11.579Z,9.96
2023-03-24T06:28:58.978Z,9.94
2023-03-24T06:31:30.716Z,9.88
2023-03-24T06:33:57.349Z,9.93
2023-03-24T06:36:25.648Z,10.05
2023-03-24T06:38:53.828Z,10.00
2023-03-24T06:41:21.266Z,9.99
2023-03-24T06:43:51.716Z,9.95
2023-03-24T06:46:18.465Z,10.04
2023-03-24T06:48:46.996Z,10.09
2023-03-24T06:51:13.558Z,10.09
2023-03-24T06:53:41.318Z,9.98
2023-03-24T06:56:08.153Z,10.07
2023-03-24T06:58:40.789Z,10.14
2023-03-24T07:01:11.289Z,10.18
2023-03-24T07:03:53.644Z,10.03
2023-03-24T07:06:43.171Z,10.16
2023-03-24T07:09:18.876Z,10.22
2023-03-24T07:11:46.360Z,10.10
2023-03-24T07:14:13.518Z,10.30
2023-03-24T07:16:41.252Z,10.37
2023-03-24T07:19:33.671Z,10.29
2023-03-24T07:22:18.634Z,10.14
2023-03-24T07:25:06.413Z,10.25
2023-03-24T07:27:48.856Z,10.17
2023-03-24T07:30:19.161Z,10.16
2023-03-24T07:32:49.168Z,10.09
2023-03-24T07:35:17.732Z,10.05
2023-03-24T07:37:44.343Z,10.19
2023-03-24T07:40:12.560Z,10.30
2023-03-24T07:42:41.930Z,10.24
2023-03-24T07:45:32.560Z,10.25
2023-03-24T07:48:02.081Z,10.29
2023-03-24T07:50:32.270Z,10.35
2023-03-24T07:53:00.421Z,10.39
2023-03-24T07:55:27.541Z,10.37
2023-03-24T07:57:58.787Z,10.35
2023-03-24T08:00:29.081Z,10.31
2023-03-24T08:03:09.562Z,10.35
2023-03-24T08:06:05.632Z,10.37
2023-03-24T08:08:38.564Z,10.43
2023-03-24T08:11:05.147Z,10.35
2023-03-24T08:13:31.597Z,10.45
2023-03-24T08:15:58.103Z,10.53
2023-03-24T08:18:25.416Z,10.61
2023-03-24T08:20:56.890Z,10.44
2023-03-24T08:23:23.959Z,10.21
2023-03-24T08:25:51.151Z,10.49
2023-03-24T08:28:17.596Z,10.64
2023-03-24T08:30:44.504Z,10.49
2023-03-24T08:33:12.839Z,10.65
2023-03-24T08:35:40.029Z,10.65
2023-03-24T08:38:08.938Z,10.74
2023-03-24T08:40:37.433Z,10.60
2023-03-24T08:43:08.445Z,10.70
2023-03-24T08:45:36.366Z,10.70
2023-03-24T08:48:06.387Z,10.62
2023-03-24T08:50:35.124Z,10.85
2023-03-24T08:53:02.720Z,10.54
2023-03-24T08:55:29.609Z,10.71
2023-03-24T08:57:56.069Z,10.68
2023-03-24T09:00:22.663Z,10.74
2023-03-24T09:02:54.469Z,10.76
2023-03-24T09:05:33.301Z,10.69
2023-03-24T09:08:08.086Z,10.79
2023-03-24T09:10:34.835Z,10.84
2023-03-24T09:13:01.284Z,10.85
2023-03-24T09:15:27.863Z,10.84
2023-03-24T09:17:54.305Z,10.64
2023-03-24T09:20:21.422Z,10.63
2023-03-24T09:22:48.185Z,10.68
2023-03-24T09:25:17.905Z,10.62
2023-03-24T09:27:44.934Z,10.76
2023-03-24T09:30:13.430Z,10.70
2023-03-24T09:32:40.351Z,10.70
2023-03-24T09:35:08.496Z,10.64
2023-03-24T09:37:36.446Z,10.70
2023-03-24T09:40:03.907Z,10.78
2023-03-24T09:42:36.217Z,10.77
2023-03-24T09:45:14.957Z,10.74
2023-03-24T09:47:48.986Z,10.76
2023-03-24T09:50:25.206Z,10.81
2023-03-24T09:52:56.589Z,10.72
2023-03-24T09:55:26.514Z,10.60
2023-03-24T09:57:55.708Z,10.56
2023-03-24T10:00:34.357Z,10.61
2023-03-24T10:03:14.470Z,10.58
2023-03-24T10:06:08.083Z,10.87
2023-03-24T10:08:37.440Z,10.98
2023-03-24T10:11:15.740Z,10.98
2023-03-24T10:14:01.042Z,11.01
2023-03-24T10:16:50.296Z,11.05
2023-03-24T10:19:28.921Z,10.77
2023-03-24T10:22:25.798Z,10.69
2023-03-24T10:25:05.151Z,10.73
2023-03-24T10:27:36.225Z,10.61
2023-03-24T10:30:25.383Z,10.71
2023-03-24T10:32:52.232Z,10.70
2023-03-24T10:35:26.910Z,10.68
2023-03-24T10:37:58.387Z,10.78
2023-03-24T10:40:33.442Z,10.85
2023-03-24T10:43:07.172Z,10.86
2023-03-24T10:45:36.722Z,10.82
2023-03-24T10:48:04.355Z,10.87
2023-03-24T10:50:33.435Z,10.79
2023-03-24T10:52:59.951Z,10.82
2023-03-24T10:55:47.875Z,10.75
2023-03-24T10:58:36.200Z,10.73
2023-03-24T11:01:07.672Z,10.53
2023-03-24T11:03:37.705Z,10.67
2023-03-24T11:06:05.715Z,10.75
2023-03-24T11:08:39.747Z,10.83
2023-03-24T11:11:24.503Z,10.88
2023-03-24T11:14:01.312Z,10.84
2023-03-24T11:16:43.080Z,10.87
2023-03-24T11:19:22.306Z,10.90
2023-03-24T11:21:51.831Z,10.96
2023-03-24T11:24:20.257Z,11.09
2023-03-24T11:27:03.639Z,11.15
2023-03-24T11:29:33.389Z,11.11
2023-03-24T11:32:10.900Z,11.14
2023-03-24T11:34:48.841Z,11.04
2023-03-24T11:37:19.970Z,11.05
2023-03-24T11:40:24.957Z,11.24
2023-03-24T11:42:57.473Z,11.45
2023-03-24T11:45:34.467Z,11.52
2023-03-24T11:48:04.601Z,11.63
2023-03-24T11:50:34.312Z,11.75
2023-03-24T11:53:18.599Z,11.90
2023-03-24T11:55:53.667Z,12.06
2023-03-24T11:58:46.774Z,12.23
2023-03-24T12:01:21.361Z,12.25
2023-03-24T12:03:47.871Z,12.36
2023-03-24T12:06:23.356Z,12.36
2023-03-24T12:09:09.964Z,12.36
2023-03-24T12:11:53.256Z,12.38
2023-03-24T12:14:41.999Z,12.29
2023-03-24T12:17:14.513Z,12.35
2023-03-24T12:20:05.870Z,12.51
2023-03-24T12:22:47.076Z,12.34
2023-03-24T12:25:42.300Z,12.50
2023-03-24T12:28:08.729Z,12.49
2023-03-24T12:30:56.875Z,12.59
2023-03-24T12:33:38.222Z,12.69
2023-03-24T12:36:31.818Z,12.82
2023-03-24T12:39:09.576Z,12.86
2023-03-24T12:41:39.151Z,12.81
2023-03-24T12:44:32.080Z,12.72
2023-03-24T12:47:18.355Z,12.85
2023-03-24T12:50:07.822Z,12.94
2023-03-24T12:52:51.156Z,13.17
2023-03-24T12:55:45.557Z,13.17
2023-03-24T12:58:38.447Z,12.93
2023-03-24T13:01:35.446Z,12.93
2023-03-24T13:04:21.133Z,12.94
2023-03-24T13:06:54.637Z,13.06
2023-03-24T13:09:43.831Z,13.25
2023-03-24T13:12:15.979Z,13.38
2023-03-24T13:15:07.128Z,13.52
2023-03-24T13:17:41.659Z,13.71
2023-03-24T13:20:14.419Z,13.66
2023-03-24T13:22:41.327Z,13.75
2023-03-24T13:25:36.984Z,13.78
2023-03-24T13:28:11.092Z,13.68
2023-03-24T13:30:41.240Z,13.79
2023-03-24T13:33:16.137Z,13.92
2023-03-24T13:36:06.971Z,13.93
2023-03-24T13:39:06.240Z,13.88
2023-03-24T13:41:37.546Z,13.91
2023-03-24T13:44:20.378Z,13.93
2023-03-24T13:47:04.853Z,13.81
2023-03-24T13:49:32.938Z,13.70
2023-03-24T13:52:03.907Z,13.62
2023-03-24T13:54:31.428Z,13.79
2023-03-24T13:57:00.966Z,13.84
2023-03-24T13:59:51.441Z,14.01
2023-03-24T14:02:46.854Z,13.95
2023-03-24T14:05:22.306Z,13.88
2023-03-24T14:07:50.875Z,13.72
2023-03-24T14:10:18.946Z,13.75
2023-03-24T14:12:58.480Z,13.72
2023-03-24T14:15:28.525Z,13.76
2023-03-24T14:17:56.663Z,14.01
2023-03-24T14:20:33.132Z,13.77
2023-03-24T14:23:00.595Z,13.68
2023-03-24T14:25:31.341Z,13.69
2023-03-24T14:28:17.374Z,13.66
2023-03-24T14:31:15.612Z,13.58
2023-03-24T14:34:02.731Z,13.50
2023-03-24T14:36:33.871Z,13.58
2023-03-24T14:39:30.887Z,13.45
2023-03-24T14:41:59.228Z,13.62
2023-03-24T14:44:44.621Z,13.66
2023-03-24T14:47:11.967Z,13.58
2023-03-24T14:49:44.564Z,13.61
2023-03-24T14:52:24.370Z,13.68
2023-03-24T14:54:53.340Z,13.48
2023-03-24T14:57:30.625Z,13.66
2023-03-24T15:00:11.975Z,13.76
2023-03-24T15:02:44.773Z,13.77
2023-03-24T15:05:23.460Z,13.82
2023-03-24T15:08:21.789Z,13.67
2023-03-24T15:10:53.221Z,13.85
2023-03-24T15:13:34.173Z,13.78
2023-03-24T15:16:04.279Z,14.01
2023-03-24T15:18:31.022Z,13.86
2023-03-24T15:20:57.650Z,13.82
2023-03-24T15:23:28.102Z,13.79
2023-03-24T15:25:56.074Z,13.73
2023-03-24T15:28:29.518Z,13.72
2023-03-24T15:30:59.347Z,13.62
2023-03-24T15:33:35.098Z,13.47
2023-03-24T15:36:03.933Z,13.61
2023-03-24T15:38:32.908Z,13.56
2023-03-24T15:41:03.588Z,13.40
2023-03-24T15:43:30.930Z,13.56
2023-03-24T15:46:12.038Z,13.46
2023-03-24T15:48:39.264Z,13.42
2023-03-24T15:51:11.580Z,13.48
2023-03-24T15:53:58.116Z,13.44
2023-03-24T15:56:31.459Z,13.50
2023-03-24T15:59:03.970Z,13.48
2023-03-24T16:01:31.429Z,13.42
2023-03-24T16:04:02.104Z,13.45
2023-03-24T16:06:35.055Z,13.38
2023-03-24T16:09:06.547Z,13.49
2023-03-24T16:11:32.957Z,13.36
2023-03-24T16:13:59.873Z,13.16
2023-03-24T16:16:28.939Z,13.14
2023-03-24T16:18:56.864Z,13.28
2023-03-24T16:21:28.660Z,13.20
2023-03-24T16:23:57.067Z,13.17
2023-03-24T16:26:27.391Z,12.95
2023-03-24T16:28:55.414Z,12.94
2023-03-24T16:31:24.936Z,12.86
2023-03-24T16:33:52.560Z,12.80
2023-03-24T16:36:21.912Z,12.83
2023-03-24T16:38:49.300Z,12.63
2023-03-24T16:41:16.225Z,12.63
2023-03-24T16:43:43.576Z,12.71
2023-03-24T16:46:20.845Z,12.64
2023-03-24T16:48:47.355Z,12.65
2023-03-24T16:51:15.912Z,12.49
2023-03-24T16:53:44.106Z,12.31
2023-03-24T16:56:14.184Z,12.34
2023-03-24T16:58:40.964Z,12.32
2023-03-24T17:01:39.529Z,12.26
2023-03-24T17:04:10.776Z,12.28
2023-03-24T17:06:39.765Z,12.33
2023-03-24T17:09:08.392Z,12.17
2023-03-24T17:11:37.606Z,12.18
2023-03-24T17:14:07.244Z,12.15
2023-03-24T17:16:36.830Z,12.03
2023-03-24T17:19:05.000Z,11.92
2023-03-24T17:21:34.517Z,11.95
2023-03-24T17:24:02.325Z,11.91
2023-03-24T17:26:30.964Z,11.92
2023-03-24T17:28:58.450Z,11.94
2023-03-24T17:31:24.996Z,11.96
2023-03-24T17:33:51.435Z,11.97
2023-03-24T17:36:17.888Z,11.94
2023-03-24T17:38:47.234Z,11.85
2023-03-24T17:41:13.747Z,11.85
2023-03-24T17:43:40.337Z,11.79
2023-03-24T17:46:06.826Z,11.77
2023-03-24T17:48:33.388Z,11.70
2023-03-24T17:50:59.809Z,11.64
2023-03-24T17:53:26.559Z,11.57
2023-03-24T17:55:58.156Z,11.59
2023-03-24T17:58:26.941Z,11.45
2023-03-24T18:00:54.154Z,11.16
2023-03-24T18:03:21.582Z,11.43
2023-03-24T18:05:48.191Z,11.40
2023-03-24T18:08:14.687Z,11.37
2023-03-24T18:10:41.116Z,11.35
2023-03-24T18:13:07.769Z,11.30
2023-03-24T18:15:34.862Z,11.36
2023-03-24T18:18:02.072Z,11.37
2023-03-24T18:20:28.746Z,11.34
2023-03-24T18:22:55.426Z,11.25
2023-03-24T18:25:22.014Z,11.19
2023-03-24T18:27:48.493Z,11.26
2023-03-24T18:30:16.779Z,11.15
2023-03-24T18:32:43.792Z,11.23
2023-03-24T18:35:16.170Z,11.20
2023-03-24T18:37:43.141Z,11.05
2023-03-24T18:40:10.678Z,11.01
2023-03-24T18:42:37.414Z,11.24
2023-03-24T18:45:06.276Z,11.45
2023-03-24T18:47:32.705Z,11.47
2023-03-24T18:49:59.117Z,11.43
2023-03-24T18:52:25.602Z,11.56
2023-03-24T18:54:53.242Z,11.71
2023-03-24T18:57:21.122Z,11.80
2023-03-24T18:59:47.624Z,11.28
2023-03-24T19:02:15.171Z,10.98
2023-03-24T19:04:42.177Z,10.87
2023-03-24T19:07:14.333Z,10.75
2023-03-24T19:09:42.477Z,10.62
2023-03-24T19:12:09.727Z,10.59
2023-03-24T19:14:36.586Z,10.47
2023-03-24T19:17:03.113Z,10.35
2023-03-24T19:19:31.326Z,10.23
2023-03-24T19:21:58.818Z,10.26
2023-03-24T19:24:26.232Z,10.12
2023-03-24T19:26:53.386Z,9.91
2023-03-24T19:29:21.166Z,9.57
2023-03-24T19:31:49.407Z,9.62
2023-03-24T19:34:16.076Z,9.31
2023-03-24T19:36:45.439Z,9.15
2023-03-24T19:39:17.379Z,9.25
2023-03-24T19:41:44.492Z,9.32
2023-03-24T19:44:10.999Z,9.39
2023-03-24T19:46:37.463Z,9.53
2023-03-24T19:49:04.049Z,9.52
2023-03-24T19:51:30.610Z,9.63
2023-03-24T19:53:57.010Z,9.68
2023-03-24T19:56:23.671Z,9.54
2023-03-24T19:58:50.192Z,9.45
2023-03-24T20:01:16.761Z,9.40
2023-03-24T20:03:43.491Z,9.48
2023-03-24T20:06:10.319Z,9.40
2023-03-24T20:08:38.022Z,9.32
2023-03-24T20:11:11.481Z,9.35
2023-03-24T20:13:37.996Z,9.31
2023-03-24T20:16:04.850Z,9.39
2023-03-24T20:18:33.519Z,9.32
2023-03-24T20:21:01.338Z,9.28
2023-03-24T20:23:28.363Z,9.29
2023-03-24T20:25:58.945Z,9.20
2023-03-24T20:28:26.528Z,8.67
2023-03-24T20:33:33.286Z,8.72
2023-03-24T20:36:00.053Z,8.68
2023-03-24T20:38:26.741Z,8.73
2023-03-24T20:41:06.521Z,8.61
2023-03-24T20:43:36.006Z,8.51
2023-03-24T20:46:04.819Z,8.50
2023-03-24T20:48:31.393Z,8.50
2023-03-24T20:50:57.852Z,8.54
2023-03-24T20:53:27.098Z,8.67
2023-03-24T20:56:01.829Z,8.64
2023-03-24T20:58:28.889Z,8.56
2023-03-24T21:00:55.491Z,8.68
2023-03-24T21:03:21.981Z,8.60
2023-03-24T21:05:48.827Z,8.69
2023-03-24T21:08:15.702Z,8.69
2023-03-24T21:10:42.159Z,8.68
2023-03-24T21:13:08.826Z,8.70
2023-03-24T21:15:41.432Z,8.68
2023-03-24T21:18:08.419Z,8.41
2023-03-24T21:20:35.027Z,8.58
2023-03-24T21:23:03.341Z,8.69
2023-03-24T21:25:33.499Z,8.65
2023-03-24T21:27:59.902Z,8.47
2023-03-24T21:30:27.354Z,8.49
2023-03-24T21:32:55.555Z,8.51
2023-03-24T21:35:23.125Z,8.52
2023-03-24T21:37:49.704Z,8.62
2023-03-24T21:40:19.707Z,8.35
2023-03-24T21:42:46.708Z,8.52
2023-03-24T21:45:18.647Z,8.62
2023-03-24T21:47:47.176Z,8.60
2023-03-24T21:50:22.787Z,8.44
2023-03-24T21:52:50.570Z,8.49
2023-03-24T21:55:17.735Z,8.48
2023-03-24T21:57:45.519Z,8.49
2023-03-24T22:00:14.737Z,8.46
2023-03-24T22:02:45.908Z,8.43
2023-03-24T22:05:13.847Z,8.42
2023-03-24T22:07:41.122Z,8.41
2023-03-24T22:10:09.161Z,8.39
2023-03-24T22:12:36.640Z,8.36
2023-03-24T22:15:03.447Z,8.33
2023-03-24T22:17:29.957Z,8.38
2023-03-24T22:19:56.490Z,8.34
2023-03-24T22:22:23.118Z,8.29
2023-03-24T22:24:49.587Z,8.23
2023-03-24T22:27:17.691Z,8.27
2023-03-24T22:29:44.160Z,8.22
2023-03-24T22:32:10.813Z,8.22
2023-03-24T22:34:37.316Z,8.27
2023-03-24T22:37:03.742Z,8.24
2023-03-24T22:39:30.223Z,8.21
2023-03-24T22:41:57.830Z,8.18
2023-03-24T22:44:24.383Z,8.14
2023-03-24T22:46:50.847Z,8.19
2023-03-24T22:49:17.418Z,8.23
2023-03-24T22:51:43.887Z,8.17
2023-03-24T22:54:10.512Z,8.07
2023-03-24T22:56:37.026Z,8.13
2023-03-24T22:59:03.556Z,8.05
2023-03-24T23:01:30.039Z,7.94
2023-03-24T23:03:56.509Z,7.76
2023-03-24T23:06:22.973Z,7.72
2023-03-24T23:08:50.215Z,7.62
2023-03-24T23:11:16.729Z,7.56
2023-03-24T23:13:44.736Z,7.76
2023-03-24T23:16:11.288Z,7.80
2023-03-24T23:18:38.399Z,7.82
2023-03-24T23:21:10.730Z,7.84
2023-03-24T23:23:38.778Z,7.79
2023-03-24T23:26:06.602Z,7.78
2023-03-24T23:28:33.601Z,7.92
2023-03-24T23:31:00.397Z,7.88
2023-03-24T23:33:27.360Z,7.90
2023-03-24T23:35:58.673Z,7.79
2023-03-24T23:38:26.441Z,7.77
2023-03-24T23:40:52.909Z,7.86
2023-03-24T23:43:19.471Z,7.87
2023-03-24T23:45:46.550Z,7.78
2023-03-24T23:48:13.153Z,7.73
2023-03-24T23:50:39.646Z,7.73
2023-03-24T23:53:06.058Z,7.75
2023-03-24T23:55:32.891Z,7.73
2023-03-24T23:57:59.404Z,7.67
